Time;durP1;ratioP1;P1;durP2;ratioP2;P2;SDS_P1;SDS_P2;PMS_P1;PMS_P2;Temp;Humidity;BMP_temperature;BMP_pressure;BME280_temperature;BME280_humidity;BME280_pressure;Samples;Min_cycle;Max_cycle;Signal;HPM_P1;HPM_P2
2022/01/29 00:00:25;;;;;;;13.07;8.80;;;2.60;13.90;;;;;;7359842;19;20079;-63
2022/01/29 00:02:55;;;;;;;15.18;9.52;;;2.60;14.30;;;;;;7363815;19;20014;-63
2022/01/29 00:05:28;;;;;;;14.68;8.45;;;2.70;14.10;;;;;;7362125;19;20015;-63
2022/01/29 00:07:58;;;;;;;17.63;9.95;;;2.60;14.50;;;;;;7357722;19;20018;-63
2022/01/29 00:10:28;;;;;;;15.10;8.82;;;2.70;14.30;;;;;;7379875;19;20040;-63
2022/01/29 00:12:58;;;;;;;16.23;8.93;;;2.70;13.80;;;;;;7364223;19;20130;-64
2022/01/29 00:15:28;;;;;;;18.30;10.68;;;2.70;13.40;;;;;;7362092;19;20007;-63
2022/01/29 00:17:58;;;;;;;17.63;9.75;;;2.80;13.70;;;;;;7359698;19;20493;-64
2022/01/29 00:20:31;;;;;;;15.05;9.25;;;2.70;13.70;;;;;;7357932;19;20023;-64
2022/01/29 00:23:04;;;;;;;16.27;9.73;;;2.70;13.70;;;;;;7364431;19;20022;-63
2022/01/29 00:25:34;;;;;;;16.33;9.20;;;2.70;14.10;;;;;;7384341;19;20379;-63
2022/01/29 00:28:04;;;;;;;17.25;9.50;;;2.60;14.10;;;;;;7357989;19;20018;-64
2022/01/29 00:30:38;;;;;;;15.30;9.00;;;2.60;14.60;;;;;;7356472;19;20014;-64
2022/01/29 00:33:11;;;;;;;13.27;8.88;;;2.60;14.60;;;;;;7363647;19;20354;-64
2022/01/29 00:35:44;;;;;;;18.48;9.85;;;2.60;14.60;;;;;;7363829;19;20010;-64
2022/01/29 00:38:14;;;;;;;16.15;8.82;;;2.50;14.60;;;;;;7362489;19;20466;-64
2022/01/29 00:40:45;;;;;;;15.65;8.93;;;2.50;15.00;;;;;;7361171;19;20018;-64
2022/01/29 00:43:17;;;;;;;14.18;9.35;;;2.50;15.40;;;;;;7389658;19;20018;-63
2022/01/29 00:45:47;;;;;;;16.63;8.95;;;2.40;15.80;;;;;;7367893;19;20510;-64
2022/01/29 00:48:17;;;;;;;18.13;9.70;;;2.40;16.30;;;;;;7365139;19;20035;-64
2022/01/29 00:50:50;;;;;;;15.43;8.65;;;2.40;16.50;;;;;;7361176;19;20058;-63
2022/01/29 00:53:20;;;;;;;16.08;9.15;;;2.30;16.80;;;;;;7369220;19;20018;-63
2022/01/29 00:55:50;;;;;;;19.23;9.95;;;2.40;17.00;;;;;;7369654;19;20014;-63
2022/01/29 00:58:20;;;;;;;16.05;8.68;;;2.40;16.80;;;;;;7388505;19;20014;-63
2022/01/29 01:00:50;;;;;;;17.02;9.38;;;2.30;16.90;;;;;;7364453;19;20023;-64
2022/01/29 01:03:20;;;;;;;16.17;9.43;;;2.30;17.00;;;;;;7367236;19;20010;-63
2022/01/29 01:05:52;;;;;;;16.20;9.27;;;2.30;17.10;;;;;;7369061;19;20007;-63
2022/01/29 01:08:22;;;;;;;18.75;10.55;;;2.40;17.20;;;;;;7364520;19;20028;-63
2022/01/29 01:10:52;;;;;;;16.10;9.95;;;2.40;17.30;;;;;;7363258;19;20034;-63
2022/01/29 01:13:22;;;;;;;16.00;9.73;;;2.40;17.40;;;;;;7388560;19;20013;-62
2022/01/29 01:15:52;;;;;;;21.55;10.18;;;2.30;17.90;;;;;;7366497;19;20018;-63
2022/01/29 01:18:22;;;;;;;14.68;9.43;;;2.30;17.90;;;;;;7364887;19;20139;-63
2022/01/29 01:20:55;;;;;;;17.48;9.73;;;2.20;17.60;;;;;;7364430;19;20013;-64
2022/01/29 01:23:29;;;;;;;16.00;9.07;;;2.20;17.80;;;;;;7367815;19;20027;-63
2022/01/29 01:26:01;;;;;;;15.20;9.43;;;2.20;17.80;;;;;;7366626;19;20027;-63
2022/01/29 01:28:31;;;;;;;16.05;9.68;;;2.10;17.90;;;;;;7385914;19;20015;-64
2022/01/29 01:31:01;;;;;;;16.60;9.70;;;2.20;18.10;;;;;;7365169;19;20002;-63
2022/01/29 01:33:31;;;;;;;14.13;9.07;;;2.20;17.80;;;;;;7369328;19;20002;-64
2022/01/29 01:36:06;;;;;;;18.38;8.82;;;2.20;18.00;;;;;;7366867;19;20532;-64
2022/01/29 01:38:42;;;;;;;15.65;9.23;;;2.20;18.10;;;;;;7363206;19;20026;-63
2022/01/29 01:41:16;;;;;;;16.55;9.55;;;2.20;17.80;;;;;;7364251;19;20040;-63
2022/01/29 01:43:46;;;;;;;16.10;10.30;;;2.20;17.80;;;;;;7368324;19;20022;-65
2022/01/29 01:46:16;;;;;;;17.88;10.25;;;2.20;17.80;;;;;;7389355;19;20014;-63
2022/01/29 01:48:46;;;;;;;16.70;9.25;;;2.20;17.80;;;;;;7363725;19;20016;-63
2022/01/29 01:51:20;;;;;;;16.38;9.23;;;2.20;17.90;;;;;;7362644;19;20473;-63
2022/01/29 01:53:51;;;;;;;19.63;9.90;;;2.30;18.10;;;;;;7368613;19;20077;-63
2022/01/29 01:56:21;;;;;;;18.08;10.15;;;2.30;18.10;;;;;;7366057;19;20002;-63
2022/01/29 01:58:51;;;;;;;19.95;9.95;;;2.30;19.80;;;;;;7366994;19;20026;-64
2022/01/29 02:01:22;;;;;;;19.58;10.93;;;2.20;21.30;;;;;;7385886;19;20022;-63
2022/01/29 02:03:52;;;;;;;21.08;10.57;;;2.20;22.10;;;;;;7365393;19;20039;-63
2022/01/29 02:06:25;;;;;;;20.05;10.20;;;2.20;22.80;;;;;;7364144;19;20067;-63
2022/01/29 02:08:59;;;;;;;21.05;11.15;;;2.20;23.10;;;;;;7367936;19;20019;-62
2022/01/29 02:11:32;;;;;;;21.93;10.77;;;2.10;24.60;;;;;;7364534;19;20023;-64
2022/01/29 02:14:02;;;;;;;20.35;11.52;;;2.10;24.60;;;;;;7366435;19;20182;-63
2022/01/29 02:16:32;;;;;;;25.20;11.40;;;2.10;25.60;;;;;;7383558;19;20082;-64
2022/01/29 02:19:02;;;;;;;19.65;11.55;;;2.20;25.20;;;;;;7365955;19;20007;-62
2022/01/29 02:21:38;;;;;;;25.70;13.07;;;2.10;25.40;;;;;;7363548;19;20077;-64
2022/01/29 02:24:08;;;;;;;26.27;13.73;;;2.10;25.60;;;;;;7367669;19;20077;-64
2022/01/29 02:26:38;;;;;;;23.25;13.10;;;2.10;26.10;;;;;;7362342;19;20010;-64
2022/01/29 02:29:08;;;;;;;23.25;13.43;;;2.10;26.50;;;;;;7365293;19;20081;-64
2022/01/29 02:31:46;;;;;;;24.33;12.88;;;2.00;26.60;;;;;;7385744;19;20014;-64
2022/01/29 02:34:17;;;;;;;23.50;14.10;;;2.00;27.30;;;;;;7366983;19;20351;-64
2022/01/29 02:36:49;;;;;;;23.75;14.07;;;2.00;27.90;;;;;;7361392;19;20014;-63
2022/01/29 02:39:21;;;;;;;27.77;14.57;;;2.00;28.60;;;;;;7363509;19;20436;-62
2022/01/29 02:41:51;;;;;;;26.73;13.20;;;2.00;28.80;;;;;;7362906;19;20557;-63
2022/01/29 02:44:22;;;;;;;22.90;12.52;;;2.00;28.50;;;;;;7367939;19;20007;-63
2022/01/29 02:46:54;;;;;;;23.55;12.80;;;2.10;28.70;;;;;;7364854;19;20085;-63
2022/01/29 02:49:26;;;;;;;21.95;12.27;;;2.10;28.60;;;;;;7386145;19;20514;-63
2022/01/29 02:52:00;;;;;;;28.25;13.98;;;2.10;28.30;;;;;;7359205;19;20073;-64
2022/01/29 02:54:30;;;;;;;22.58;12.93;;;2.10;28.00;;;;;;7366452;19;20031;-62
2022/01/29 02:57:00;;;;;;;23.67;13.18;;;2.10;28.00;;;;;;7363333;19;20481;-63
2022/01/29 02:59:30;;;;;;;25.65;12.27;;;2.10;28.00;;;;;;7363761;19;20011;-63
2022/01/29 03:02:00;;;;;;;19.77;11.82;;;2.10;28.00;;;;;;7357625;19;20045;-63
2022/01/29 03:04:30;;;;;;;25.00;12.52;;;2.10;27.90;;;;;;7386941;19;20340;-63
2022/01/29 03:07:03;;;;;;;24.77;12.80;;;2.10;28.20;;;;;;7363031;19;20090;-63
2022/01/29 03:09:33;;;;;;;19.38;11.43;;;2.20;28.00;;;;;;7364873;19;20046;-63
2022/01/29 03:12:03;;;;;;;22.90;12.50;;;2.10;27.80;;;;;;7360076;19;20067;-63
2022/01/29 03:14:33;;;;;;;22.85;11.98;;;2.10;27.60;;;;;;7364946;19;20018;-63
2022/01/29 03:17:03;;;;;;;21.17;11.50;;;2.10;27.60;;;;;;7362287;19;20014;-64
2022/01/29 03:19:33;;;;;;;22.33;13.18;;;2.20;27.80;;;;;;7386403;19;20341;-64
2022/01/29 03:22:06;;;;;;;23.80;11.93;;;2.10;27.40;;;;;;7358918;19;20418;-64
2022/01/29 03:24:36;;;;;;;20.52;10.95;;;2.20;27.80;;;;;;7364862;19;20010;-64
2022/01/29 03:27:08;;;;;;;22.00;11.60;;;2.10;27.40;;;;;;7362210;19;20019;-63
2022/01/29 03:29:38;;;;;;;19.88;11.35;;;2.10;27.80;;;;;;7362400;19;20444;-63
2022/01/29 03:32:09;;;;;;;17.98;9.90;;;2.10;27.50;;;;;;7361438;19;20006;-63
2022/01/29 03:34:40;;;;;;;20.98;10.52;;;2.10;27.30;;;;;;7387222;19;20529;-64
2022/01/29 03:37:12;;;;;;;19.40;10.70;;;2.10;26.70;;;;;;7360279;19;20002;-64
2022/01/29 03:39:43;;;;;;;19.52;10.60;;;2.10;26.60;;;;;;7362797;19;20843;-64
2022/01/29 03:42:14;;;;;;;19.98;10.95;;;2.10;26.60;;;;;;7361047;19;20007;-64
2022/01/29 03:44:45;;;;;;;20.02;10.60;;;2.10;25.80;;;;;;7365392;19;20007;-63
2022/01/29 03:47:15;;;;;;;18.60;10.35;;;2.10;25.40;;;;;;7360928;19;20010;-65
2022/01/29 03:49:47;;;;;;;22.95;11.40;;;2.10;25.90;;;;;;7362297;19;20074;-64
2022/01/29 03:52:20;;;;;;;19.27;11.02;;;2.10;25.40;;;;;;7379455;19;20766;-63
2022/01/29 03:54:59;;;;;;;19.63;10.60;;;2.10;25.10;;;;;;7365196;19;20014;-64
2022/01/29 03:57:30;;;;;;;18.45;10.60;;;2.10;24.90;;;;;;7360628;19;20017;-65
2022/01/29 04:00:01;;;;;;;20.25;10.23;;;2.20;25.40;;;;;;7362193;19;20011;-64
2022/01/29 04:02:31;;;;;;;17.25;10.10;;;2.20;24.70;;;;;;7362674;19;20010;-64
2022/01/29 04:05:01;;;;;;;20.20;10.18;;;2.20;24.60;;;;;;7363803;19;21447;-63
2022/01/29 04:07:34;;;;;;;18.00;10.38;;;2.20;24.70;;;;;;7381351;19;20010;-63
2022/01/29 04:10:04;;;;;;;18.45;10.57;;;2.20;25.10;;;;;;7361186;19;20363;-62
2022/01/29 04:12:40;;;;;;;17.80;10.60;;;2.20;25.00;;;;;;7363334;19;20039;-63
2022/01/29 04:15:11;;;;;;;20.10;10.18;;;2.10;25.60;;;;;;7363339;19;20093;-63
2022/01/29 04:17:41;;;;;;;17.50;10.00;;;2.10;25.50;;;;;;7360861;19;20011;-63
2022/01/29 04:20:12;;;;;;;20.85;10.85;;;1.90;26.10;;;;;;7359705;19;20020;-63
2022/01/29 04:22:44;;;;;;;20.20;11.65;;;2.00;26.90;;;;;;7383330;19;20014;-64
2022/01/29 04:25:14;;;;;;;21.75;11.85;;;2.00;26.90;;;;;;7386000;19;20010;-63
2022/01/29 04:27:46;;;;;;;21.95;11.98;;;2.00;26.90;;;;;;7358155;19;20014;-63
2022/01/29 04:30:27;;;;;;;22.05;12.02;;;2.00;26.60;;;;;;7357721;19;20011;-63
2022/01/29 04:33:01;;;;;;;22.33;12.57;;;2.00;27.00;;;;;;7364379;19;20351;-62
2022/01/29 04:35:32;;;;;;;21.73;12.40;;;1.90;27.70;;;;;;7364000;19;20465;-62
2022/01/29 04:38:04;;;;;;;22.38;11.98;;;1.90;27.80;;;;;;7360216;19;20036;-63
2022/01/29 04:40:35;;;;;;;24.33;11.98;;;1.90;27.80;;;;;;7379013;19;20082;-62
2022/01/29 04:43:05;;;;;;;20.52;11.77;;;1.90;27.70;;;;;;7361890;19;20066;-63
2022/01/29 04:45:35;;;;;;;23.60;11.95;;;1.90;27.70;;;;;;7362576;19;20015;-63
2022/01/29 04:48:06;;;;;;;20.50;11.32;;;2.00;27.50;;;;;;7360322;19;20014;-63
2022/01/29 04:50:36;;;;;;;18.75;11.52;;;2.00;26.60;;;;;;7356879;19;20358;-63
2022/01/29 04:53:08;;;;;;;21.20;12.10;;;2.00;27.30;;;;;;7362689;19;20035;-63
2022/01/29 04:55:39;;;;;;;20.95;11.77;;;2.00;26.70;;;;;;7383884;19;20038;-63
2022/01/29 04:58:08;;;;;;;23.30;13.07;;;2.00;26.90;;;;;;7360526;19;20066;-63
2022/01/29 05:00:38;;;;;;;23.23;13.95;;;2.00;27.80;;;;;;7357250;19;20475;-62
2022/01/29 05:03:11;;;;;;;25.33;14.57;;;2.00;27.90;;;;;;7362966;19;20010;-61
2022/01/29 05:05:42;;;;;;;24.92;14.55;;;2.00;28.30;;;;;;7361961;19;20730;-62
2022/01/29 05:08:16;;;;;;;24.25;14.02;;;2.00;28.90;;;;;;7359020;19;20098;-62
2022/01/29 05:10:47;;;;;;;25.73;15.40;;;2.00;28.60;;;;;;7359043;19;20496;-63
2022/01/29 05:13:21;;;;;;;28.13;15.95;;;1.90;29.00;;;;;;7383477;19;20014;-62
2022/01/29 05:16:04;;;;;;;29.95;16.13;;;2.00;29.30;;;;;;7361630;19;20031;-62
2022/01/29 05:26:55;;;;;;;;;;;2.00;29.00;;;;;;7366976;19;20098;-62
2022/01/29 05:29:29;;;;;;;32.13;17.98;;;2.00;29.10;;;;;;7369112;19;19906;-63
2022/01/29 05:31:59;;;;;;;34.13;19.00;;;2.00;29.10;;;;;;7363092;19;20085;-63
2022/01/29 05:34:29;;;;;;;31.17;17.88;;;2.00;28.50;;;;;;7388732;19;20010;-64
2022/01/29 05:36:59;;;;;;;29.92;15.95;;;2.00;28.50;;;;;;7364719;19;20006;-64
2022/01/29 05:39:32;;;;;;;29.77;16.83;;;2.00;28.10;;;;;;7369119;19;20494;-62
2022/01/29 05:42:02;;;;;;;29.45;16.88;;;2.00;28.30;;;;;;7363064;19;20010;-63
2022/01/29 05:44:32;;;;;;;28.80;16.48;;;2.00;27.80;;;;;;7367435;19;20010;-63
2022/01/29 05:47:02;;;;;;;31.77;16.17;;;2.00;27.70;;;;;;7364698;19;20355;-63
2022/01/29 05:49:32;;;;;;;29.02;16.02;;;2.00;27.80;;;;;;7388361;19;20014;-63
2022/01/29 05:52:01;;;;;;;24.85;15.32;;;2.00;27.70;;;;;;7361933;19;20006;-62
2022/01/29 05:54:34;;;;;;;25.92;15.23;;;2.00;26.40;;;;;;7367951;19;20014;-63
2022/01/29 05:57:04;;;;;;;29.30;15.75;;;2.10;25.80;;;;;;7364246;19;20077;-62
2022/01/29 05:59:36;;;;;;;29.92;15.38;;;2.10;26.30;;;;;;7366257;19;20070;-62
2022/01/29 06:02:06;;;;;;;33.78;15.52;;;2.10;26.30;;;;;;7362899;19;20010;-63
2022/01/29 06:04:36;;;;;;;29.02;16.05;;;2.10;26.10;;;;;;7388722;19;20011;-62
2022/01/29 06:07:06;;;;;;;31.92;15.68;;;2.00;26.00;;;;;;7362224;19;20002;-62
2022/01/29 06:09:38;;;;;;;32.50;16.25;;;2.00;25.70;;;;;;7364629;19;20088;-62
2022/01/29 06:12:09;;;;;;;28.23;15.23;;;2.00;25.90;;;;;;7360609;19;20007;-63
2022/01/29 06:14:39;;;;;;;27.60;14.85;;;2.00;26.00;;;;;;7368739;19;20071;-62
2022/01/29 06:17:11;;;;;;;31.48;14.98;;;2.00;26.20;;;;;;7362222;19;20025;-63
2022/01/29 06:19:41;;;;;;;30.48;13.80;;;2.10;26.20;;;;;;7385621;19;20304;-62
2022/01/29 06:22:13;;;;;;;29.48;14.93;;;2.00;25.70;;;;;;7362406;19;20458;-62
2022/01/29 06:24:46;;;;;;;29.63;15.32;;;2.00;26.50;;;;;;7365891;19;20181;-63
2022/01/29 06:27:15;;;;;;;27.98;14.45;;;2.00;26.10;;;;;;7363994;19;20022;-62
2022/01/29 06:29:46;;;;;;;31.38;15.98;;;2.00;25.70;;;;;;7366223;19;20035;-62
2022/01/29 06:32:17;;;;;;;30.17;15.40;;;2.00;25.80;;;;;;7361153;19;20093;-63
2022/01/29 06:34:47;;;;;;;33.03;14.80;;;2.10;25.90;;;;;;7366459;19;20505;-63
2022/01/29 06:37:16;;;;;;;25.50;14.73;;;2.10;25.70;;;;;;7383206;19;20661;-63
2022/01/29 06:39:54;;;;;;;26.25;14.38;;;2.00;25.60;;;;;;7364856;19;20015;-63
2022/01/29 06:42:24;;;;;;;27.58;14.35;;;2.00;25.10;;;;;;7364139;19;20015;-64
2022/01/29 06:44:54;;;;;;;26.77;14.60;;;2.10;25.70;;;;;;7368057;19;20049;-62
2022/01/29 06:47:24;;;;;;;30.30;14.10;;;2.10;25.60;;;;;;7363624;19;20014;-62
2022/01/29 06:49:54;;;;;;;26.02;13.10;;;2.10;25.20;;;;;;7363253;19;20022;-62
2022/01/29 06:52:24;;;;;;;23.73;13.07;;;2.10;25.40;;;;;;7384438;19;20006;-63
2022/01/29 06:54:56;;;;;;;25.67;14.00;;;2.20;25.20;;;;;;7367259;19;20042;-63
2022/01/29 06:57:26;;;;;;;22.52;12.70;;;2.10;24.70;;;;;;7362235;19;20017;-64
2022/01/29 06:59:56;;;;;;;24.58;12.95;;;2.20;24.70;;;;;;7364469;19;20531;-64
2022/01/29 07:02:26;;;;;;;24.23;13.63;;;2.20;24.60;;;;;;7364138;19;20031;-64
2022/01/29 07:04:56;;;;;;;24.73;13.75;;;2.30;24.70;;;;;;7367416;19;20027;-64
2022/01/29 07:07:30;;;;;;;31.58;14.07;;;2.20;24.10;;;;;;7384454;19;20014;-63
2022/01/29 07:10:03;;;;;;;25.20;13.57;;;2.20;24.20;;;;;;7360788;19;20101;-63
2022/01/29 07:12:33;;;;;;;24.02;13.63;;;2.20;24.60;;;;;;7361999;19;20311;-62
2022/01/29 07:15:03;;;;;;;32.00;13.98;;;2.20;24.70;;;;;;7365954;19;20019;-63
2022/01/29 07:17:32;;;;;;;28.75;15.25;;;2.20;24.60;;;;;;7363935;19;20086;-63
2022/01/29 07:20:02;;;;;;;26.23;14.73;;;2.30;24.70;;;;;;7360560;19;20023;-64
2022/01/29 07:22:32;;;;;;;26.17;13.95;;;2.30;23.50;;;;;;7383545;19;20437;-63
2022/01/29 07:25:05;;;;;;;25.85;14.82;;;2.40;22.90;;;;;;7365327;19;20100;-64
2022/01/29 07:27:35;;;;;;;23.83;13.57;;;2.40;22.10;;;;;;7363942;19;20711;-63
2022/01/29 07:30:06;;;;;;;23.48;13.90;;;2.40;21.40;;;;;;7366236;19;20115;-63
2022/01/29 07:32:36;;;;;;;25.15;14.55;;;2.40;21.40;;;;;;7361077;19;20082;-63
2022/01/29 07:35:06;;;;;;;23.23;14.15;;;2.40;22.20;;;;;;7365022;19;20022;-63
2022/01/29 07:37:36;;;;;;;31.48;14.88;;;2.40;21.60;;;;;;7383036;19;20074;-63
2022/01/29 07:40:11;;;;;;;24.85;15.13;;;2.40;22.20;;;;;;7365249;19;20086;-63
2022/01/29 07:42:41;;;;;;;25.70;14.88;;;2.40;22.70;;;;;;7359727;19;20019;-63
2022/01/29 07:45:11;;;;;;;25.77;14.20;;;2.40;22.30;;;;;;7364886;19;20085;-64
2022/01/29 07:47:41;;;;;;;24.05;14.43;;;2.50;22.50;;;;;;7358024;19;20081;-63
2022/01/29 07:50:12;;;;;;;24.70;13.98;;;2.50;21.50;;;;;;7365164;19;20082;-63
2022/01/29 07:52:42;;;;;;;27.45;14.35;;;2.60;21.10;;;;;;7381649;19;20074;-63
2022/01/29 07:55:14;;;;;;;20.77;12.80;;;2.70;21.30;;;;;;7363638;19;20010;-62
2022/01/29 07:57:44;;;;;;;21.40;13.38;;;2.60;20.80;;;;;;7359017;19;20106;-62
2022/01/29 08:00:15;;;;;;;18.45;11.55;;;2.70;20.30;;;;;;7364588;19;20237;-63
2022/01/29 08:02:46;;;;;;;20.95;12.02;;;2.70;19.70;;;;;;7359129;19;20011;-64
2022/01/29 08:05:16;;;;;;;21.65;11.80;;;2.70;19.50;;;;;;7362116;19;20017;-63
2022/01/29 08:07:46;;;;;;;18.20;10.75;;;2.70;18.90;;;;;;7358590;19;20010;-63
2022/01/29 08:10:18;;;;;;;18.83;10.35;;;2.90;18.30;;;;;;7384917;19;20018;-62
2022/01/29 08:12:48;;;;;;;17.65;9.48;;;2.90;17.30;;;;;;7358961;19;20444;-64
2022/01/29 08:15:18;;;;;;;14.75;9.15;;;3.00;16.20;;;;;;7365265;19;20474;-63
2022/01/29 08:17:48;;;;;;;16.67;9.60;;;3.10;14.90;;;;;;7357880;19;20472;-63
2022/01/29 08:20:18;;;;;;;13.35;8.00;;;3.20;15.00;;;;;;7363013;19;20010;-63
2022/01/29 08:22:48;;;;;;;13.38;7.55;;;3.30;14.50;;;;;;7359466;19;20021;-65
2022/01/29 08:25:20;;;;;;;11.82;7.53;;;3.40;12.10;;;;;;7384631;19;20018;-64
2022/01/29 08:27:50;;;;;;;11.60;7.32;;;3.50;10.60;;;;;;7357744;19;20525;-64
2022/01/29 08:30:20;;;;;;;12.45;6.82;;;3.60;10.10;;;;;;7362568;19;20002;-64
2022/01/29 08:32:50;;;;;;;13.07;6.93;;;3.70;9.30;;;;;;7357166;19;20020;-64
2022/01/29 08:35:20;;;;;;;11.82;6.68;;;3.80;8.50;;;;;;7364942;19;20014;-62
2022/01/29 08:37:50;;;;;;;11.40;7.30;;;3.90;8.00;;;;;;7357297;19;20098;-63
2022/01/29 08:40:23;;;;;;;11.50;6.72;;;3.90;8.20;;;;;;7383256;19;20066;-63
2022/01/29 08:42:53;;;;;;;12.52;6.68;;;4.00;7.70;;;;;;7358863;19;20010;-64
2022/01/29 08:45:23;;;;;;;10.95;6.55;;;4.00;7.40;;;;;;7363930;19;20111;-63
2022/01/29 08:47:54;;;;;;;14.60;6.07;;;4.10;6.60;;;;;;7358324;19;20014;-62
2022/01/29 08:50:24;;;;;;;7.72;4.88;;;4.00;6.20;;;;;;7362611;19;20028;-63
2022/01/29 08:52:54;;;;;;;8.48;5.22;;;4.00;5.60;;;;;;7357960;19;20011;-62
2022/01/29 08:55:26;;;;;;;7.78;4.72;;;4.20;5.20;;;;;;7384545;19;20076;-62
2022/01/29 08:57:56;;;;;;;7.85;4.88;;;4.20;4.60;;;;;;7356876;19;20078;-63
2022/01/29 09:00:26;;;;;;;9.40;4.55;;;4.30;4.40;;;;;;7365950;19;20070;-64
2022/01/29 09:02:56;;;;;;;7.72;4.88;;;4.30;3.60;;;;;;7365855;19;20018;-63
2022/01/29 09:05:26;;;;;;;7.22;4.50;;;4.30;3.00;;;;;;7369676;19;20011;-64
2022/01/29 09:07:56;;;;;;;8.63;4.82;;;4.40;3.20;;;;;;7364003;19;20011;-64
2022/01/29 09:10:30;;;;;;;6.90;4.38;;;4.40;3.00;;;;;;7389114;19;20070;-63
2022/01/29 09:13:01;;;;;;;5.75;4.07;;;4.40;2.50;;;;;;7364649;19;20066;-63
2022/01/29 09:15:31;;;;;;;7.45;4.15;;;4.50;2.60;;;;;;7366569;19;20562;-63
2022/01/29 09:18:01;;;;;;;12.30;4.68;;;4.50;2.10;;;;;;7363488;19;20014;-63
2022/01/29 09:20:31;;;;;;;6.68;4.00;;;4.50;2.30;;;;;;7367588;19;20078;-63
2022/01/29 09:23:01;;;;;;;8.23;4.00;;;4.60;1.90;;;;;;7365825;19;20094;-64
2022/01/29 09:25:35;;;;;;;7.88;4.38;;;4.70;1.40;;;;;;7388174;19;20045;-63
2022/01/29 09:28:06;;;;;;;6.90;4.25;;;4.70;1.40;;;;;;7361779;19;20018;-64
2022/01/29 09:30:37;;;;;;;13.23;3.90;;;4.80;1.50;;;;;;7365676;19;20035;-63
2022/01/29 09:33:07;;;;;;;6.25;3.78;;;5.00;1.10;;;;;;7369313;19;20345;-63
2022/01/29 09:35:38;;;;;;;8.07;4.25;;;5.00;1.00;;;;;;7367634;19;20006;-64
2022/01/29 09:38:08;;;;;;;8.13;4.15;;;5.10;1.00;;;;;;7360748;19;20022;-64
2022/01/29 09:40:43;;;;;;;7.90;4.65;;;5.10;1.00;;;;;;7385149;19;20077;-63
2022/01/29 09:43:14;;;;;;;6.63;3.90;;;5.20;1.00;;;;;;7367068;19;20010;-63
2022/01/29 09:45:45;;;;;;;7.85;4.45;;;5.30;1.00;;;;;;7367559;19;20014;-64
2022/01/29 09:48:16;;;;;;;7.00;3.78;;;5.30;1.00;;;;;;7362037;19;20039;-63
2022/01/29 09:50:46;;;;;;;6.82;3.60;;;5.30;1.00;;;;;;7364293;19;20123;-63
2022/01/29 09:53:16;;;;;;;10.15;3.67;;;5.40;1.00;;;;;;7365777;19;20091;-63
2022/01/29 09:55:49;;;;;;;7.45;3.50;;;5.60;1.00;;;;;;7366910;19;20078;-63
2022/01/29 09:58:19;;;;;;;8.20;3.90;;;5.70;1.00;;;;;;7381381;19;20071;-63
2022/01/29 10:00:49;;;;;;;5.78;3.45;;;5.80;1.00;;;;;;7363858;19;20074;-63
2022/01/29 10:03:21;;;;;;;5.45;3.50;;;5.70;1.00;;;;;;7365637;19;20007;-63
2022/01/29 10:05:53;;;;;;;5.47;3.15;;;5.60;1.00;;;;;;7366839;19;20088;-64
2022/01/29 10:08:25;;;;;;;19.10;3.92;;;5.60;1.00;;;;;;7361271;19;20487;-64
2022/01/29 10:11:00;;;;;;;6.68;3.83;;;5.60;1.00;;;;;;7363817;19;20019;-64
2022/01/29 10:13:32;;;;;;;8.10;3.45;;;5.60;1.00;;;;;;7385741;19;20006;-64
2022/01/29 10:16:09;;;;;;;5.15;3.30;;;5.70;1.00;;;;;;7365609;19;20014;-62
2022/01/29 10:18:39;;;;;;;4.43;2.80;;;5.80;1.00;;;;;;7360233;19;20006;-62
2022/01/29 10:21:14;;;;;;;9.25;3.70;;;5.90;1.00;;;;;;7364033;19;20101;-63
2022/01/29 10:23:46;;;;;;;4.38;2.72;;;6.10;1.00;;;;;;7367028;19;20014;-63
2022/01/29 10:26:33;;;;;;;5.47;2.92;;;6.20;1.00;;;;;;7365628;19;20102;-63
2022/01/29 10:29:05;;;;;;;7.45;3.20;;;6.30;1.00;;;;;;7364052;19;20343;-63
2022/01/29 10:31:43;;;;;;;6.85;3.40;;;6.40;1.00;;;;;;7383692;19;20007;-62
2022/01/29 10:34:24;;;;;;;5.03;3.20;;;6.40;1.00;;;;;;7366089;19;20123;-63
2022/01/29 10:37:16;;;;;;;4.15;2.88;;;6.10;1.00;;;;;;7362272;19;20078;-63
2022/01/29 10:39:48;;;;;;;4.30;2.92;;;6.30;1.00;;;;;;7365790;19;20039;-65
2022/01/29 10:42:23;;;;;;;6.13;3.17;;;6.20;1.00;;;;;;7362375;19;20086;-64
2022/01/29 10:44:57;;;;;;;8.27;4.82;;;6.20;1.00;;;;;;7365599;19;20010;-64
2022/01/29 10:47:26;;;;;;;6.22;3.13;;;6.40;1.00;;;;;;7361438;19;20018;-65
2022/01/29 10:49:59;;;;;;;8.00;4.18;;;6.40;1.00;;;;;;7366847;19;20007;-63
2022/01/29 10:52:32;;;;;;;5.63;3.50;;;6.30;1.00;;;;;;7382649;19;20022;-64
2022/01/29 10:55:03;;;;;;;5.95;3.63;;;6.30;1.00;;;;;;7364439;19;20780;-63
2022/01/29 10:57:40;;;;;;;5.72;3.63;;;6.40;1.00;;;;;;7358804;19;20660;-64
2022/01/29 11:00:18;;;;;;;4.95;3.60;;;6.40;1.00;;;;;;7366466;19;20050;-63
2022/01/29 11:02:48;;;;;;;5.60;3.42;;;6.40;1.00;;;;;;7361700;19;20014;-62
2022/01/29 11:05:18;;;;;;;7.70;3.70;;;6.30;1.00;;;;;;7364567;19;20116;-64
2022/01/29 11:07:51;;;;;;;6.65;3.63;;;6.30;1.00;;;;;;7357759;19;20102;-64
2022/01/29 11:10:22;;;;;;;6.25;3.60;;;6.40;1.40;;;;;;7386411;19;20027;-64
2022/01/29 11:12:55;;;;;;;5.65;3.60;;;6.40;1.60;;;;;;7361393;19;20058;-62
2022/01/29 11:15:25;;;;;;;5.18;3.78;;;6.40;1.50;;;;;;7359898;19;20077;-63
2022/01/29 11:17:55;;;;;;;5.57;3.67;;;6.60;2.20;;;;;;7355321;19;20076;-63
2022/01/29 11:20:25;;;;;;;6.03;3.63;;;6.60;2.20;;;;;;7364566;19;20432;-64
2022/01/29 11:22:56;;;;;;;7.00;3.47;;;6.70;2.70;;;;;;7359828;19;20018;-63
2022/01/29 11:25:31;;;;;;;6.72;3.47;;;6.70;2.70;;;;;;7386219;19;20015;-63
2022/01/29 11:28:19;;;;;;;9.27;3.42;;;6.60;2.60;;;;;;7354507;19;20010;-64
2022/01/29 11:31:10;;;;;;;5.20;3.47;;;6.70;2.70;;;;;;7358080;19;20086;-64
2022/01/29 11:34:18;;;;;;;6.60;3.75;;;6.80;2.70;;;;;;7361868;19;20010;-64
2022/01/29 11:37:10;;;;;;;5.93;3.28;;;6.90;2.60;;;;;;7356712;19;20039;-63
2022/01/29 11:39:40;;;;;;;4.97;3.30;;;7.00;2.90;;;;;;7361365;19;20011;-64
2022/01/29 11:42:32;;;;;;;8.90;3.92;;;7.00;2.90;;;;;;7360229;19;20010;-63
2022/01/29 11:45:39;;;;;;;8.32;3.85;;;6.80;2.70;;;;;;7362351;19;20017;-63
2022/01/29 11:48:10;;;;;;;8.02;3.38;;;6.90;3.50;;;;;;7357542;19;20076;-63
2022/01/29 11:50:51;;;;;;;6.03;2.85;;;7.00;3.30;;;;;;7357789;19;20002;-65
2022/01/29 11:53:22;;;;;;;5.43;3.13;;;7.10;4.80;;;;;;7360461;19;20043;-64
2022/01/29 11:55:54;;;;;;;5.25;2.45;;;7.20;4.70;;;;;;7362247;19;20018;-63
2022/01/29 11:58:28;;;;;;;4.10;2.38;;;7.40;6.80;;;;;;7379424;19;20086;-64
2022/01/29 12:01:02;;;;;;;5.18;2.40;;;7.40;5.90;;;;;;7356907;19;20011;-62
2022/01/29 12:03:56;;;;;;;2.28;1.70;;;7.40;6.00;;;;;;7362570;19;20006;-65
2022/01/29 12:06:29;;;;;;;1.67;1.13;;;7.50;8.00;;;;;;7359222;19;20011;-63
2022/01/29 12:09:24;;;;;;;2.25;1.33;;;7.60;7.80;;;;;;7361054;19;20486;-65
2022/01/29 12:12:17;;;;;;;1.30;0.93;;;7.50;8.30;;;;;;7361028;19;20017;-64
2022/01/29 12:14:48;;;;;;;3.33;1.30;;;7.40;8.50;;;;;;7363278;19;20326;-64
2022/01/29 12:17:45;;;;;;;1.27;0.88;;;7.40;8.70;;;;;;7358094;19;20014;-62
2022/01/29 12:20:16;;;;;;;2.08;0.90;;;7.40;8.60;;;;;;7364193;19;20044;-64
2022/01/29 12:22:47;;;;;;;3.80;1.10;;;7.40;9.00;;;;;;7357584;19;20082;-64
2022/01/29 12:25:20;;;;;;;3.00;0.90;;;7.40;9.30;;;;;;7383484;19;20032;-64
2022/01/29 12:27:51;;;;;;;2.53;0.90;;;7.30;8.90;;;;;;7357655;19;20104;-63
2022/01/29 12:30:24;;;;;;;1.58;0.88;;;7.40;9.10;;;;;;7360472;19;20011;-63
2022/01/29 12:33:04;;;;;;;1.95;1.10;;;7.60;9.20;;;;;;7358121;19;20533;-64
2022/01/29 12:35:36;;;;;;;1.60;1.10;;;7.60;8.60;;;;;;7368369;19;20010;-63
2022/01/29 12:38:09;;;;;;;1.60;1.10;;;7.60;9.00;;;;;;7363032;19;20035;-66
2022/01/29 12:40:42;;;;;;;2.95;1.42;;;7.70;8.70;;;;;;7387650;19;20022;-63
2022/01/29 12:43:29;;;;;;;6.35;1.60;;;7.70;8.60;;;;;;7372286;19;20014;-65
2022/01/29 12:46:13;;;;;;;2.25;1.20;;;7.80;8.60;;;;;;7368939;19;20029;-66
2022/01/29 12:48:58;;;;;;;6.55;3.33;;;7.90;7.40;;;;;;7363045;19;20035;-64
2022/01/29 12:51:28;;;;;;;6.10;3.67;;;7.90;8.00;;;;;;7364651;19;20016;-64
2022/01/29 12:53:59;;;;;;;5.40;2.25;;;7.70;8.10;;;;;;7369494;19;20032;-63
2022/01/29 12:56:33;;;;;;;3.42;1.80;;;7.50;9.00;;;;;;7366821;19;20035;-64
2022/01/29 12:59:04;;;;;;;2.60;1.70;;;7.50;9.40;;;;;;7366657;19;20777;-64
2022/01/29 13:01:38;;;;;;;2.67;1.67;;;7.40;10.00;;;;;;7385707;19;20018;-64
2022/01/29 13:04:13;;;;;;;3.58;2.33;;;7.40;10.50;;;;;;7368313;19;20078;-63
2022/01/29 13:06:43;;;;;;;3.63;1.90;;;7.20;12.20;;;;;;7364632;19;20011;-64
2022/01/29 13:09:18;;;;;;;2.22;1.50;;;7.10;14.70;;;;;;7368479;19;20027;-62
2022/01/29 13:11:49;;;;;;;3.72;1.73;;;6.90;17.40;;;;;;7366177;19;20010;-65
2022/01/29 13:14:21;;;;;;;3.25;2.13;;;7.00;18.10;;;;;;7366904;19;20361;-64
2022/01/29 13:16:54;;;;;;;3.60;1.88;;;7.10;17.40;;;;;;7362894;19;20118;-65
2022/01/29 13:19:28;;;;;;;3.78;1.80;;;6.90;16.60;;;;;;7387701;19;20336;-64
2022/01/29 13:22:00;;;;;;;3.97;1.92;;;6.90;17.30;;;;;;7367132;19;20078;-64